createdAt,value
2022-08-22T00:02:36.994Z,16.80
2022-08-22T00:02:47.156Z,17.84
2022-08-22T00:06:06.181Z,16.80
2022-08-22T00:09:35.603Z,16.77
2022-08-22T00:12:51.643Z,16.73
2022-08-22T00:16:11.196Z,16.71
2022-08-22T00:19:21.433Z,16.75
2022-08-22T00:22:39.757Z,16.79
2022-08-22T00:26:34.090Z,16.83
2022-08-22T00:29:54.887Z,16.79
2022-08-22T00:33:09.289Z,16.79
2022-08-22T00:36:35.055Z,16.79
2022-08-22T00:40:13.170Z,16.77
2022-08-22T00:43:38.971Z,16.80
2022-08-22T00:47:14.411Z,16.91
2022-08-22T00:51:03.513Z,16.90
2022-08-22T00:54:35.323Z,16.84
2022-08-22T00:58:11.628Z,16.79
2022-08-22T01:01:20.774Z,16.78
2022-08-22T01:04:47.022Z,16.81
2022-08-22T01:08:25.118Z,16.78
2022-08-22T01:12:03.491Z,16.77
2022-08-22T01:15:22.690Z,16.73
2022-08-22T01:18:57.454Z,16.70
2022-08-22T01:23:21.960Z,16.70
2022-08-22T01:27:17.505Z,16.64
2022-08-22T01:31:23.928Z,16.58
2022-08-22T01:34:46.595Z,16.61
2022-08-22T01:38:08.689Z,16.65
2022-08-22T01:41:46.549Z,16.67
2022-08-22T01:45:24.865Z,16.69
2022-08-22T01:49:06.324Z,16.61
2022-08-22T01:52:44.845Z,16.62
2022-08-22T01:56:13.711Z,16.63
2022-08-22T01:59:34.029Z,16.71
2022-08-22T02:03:25.418Z,16.72
2022-08-22T02:07:02.618Z,16.74
2022-08-22T02:10:58.676Z,16.66
2022-08-22T02:14:33.580Z,16.57
2022-08-22T02:18:05.137Z,16.53
2022-08-22T02:21:30.105Z,16.52
2022-08-22T02:24:34.630Z,16.60
2022-08-22T02:28:09.498Z,16.55
2022-08-22T02:31:55.506Z,16.54
2022-08-22T02:35:31.115Z,16.47
2022-08-22T02:38:48.132Z,16.54
2022-08-22T02:42:38.164Z,16.55
2022-08-22T02:46:18.274Z,16.56
2022-08-22T02:49:47.069Z,16.51
2022-08-22T02:53:09.033Z,16.49
2022-08-22T02:56:22.359Z,16.46
2022-08-22T02:59:27.308Z,16.47
2022-08-22T03:02:46.543Z,16.46
2022-08-22T03:06:02.115Z,16.39
2022-08-22T03:09:14.562Z,16.39
2022-08-22T03:12:42.374Z,16.38
2022-08-22T03:16:04.602Z,16.32
2022-08-22T03:19:52.019Z,16.17
2022-08-22T03:23:41.974Z,16.14
2022-08-22T03:27:13.645Z,16.14
2022-08-22T03:30:58.278Z,16.21
2022-08-22T03:34:26.612Z,16.09
2022-08-22T03:37:40.503Z,16.05
2022-08-22T03:41:12.728Z,15.99
2022-08-22T03:44:46.516Z,16.00
2022-08-22T03:48:35.437Z,15.88
2022-08-22T03:52:09.997Z,15.83
2022-08-22T03:55:34.937Z,15.83
2022-08-22T03:59:31.431Z,15.81
2022-08-22T04:03:01.103Z,15.77
2022-08-22T04:06:22.348Z,15.67
2022-08-22T04:10:15.040Z,15.56
2022-08-22T04:13:50.036Z,15.53
2022-08-22T04:17:31.468Z,15.54
2022-08-22T04:20:44.179Z,15.50
2022-08-22T04:24:10.645Z,15.53
2022-08-22T04:27:24.024Z,15.50
2022-08-22T04:31:07.068Z,15.44
2022-08-22T04:34:52.692Z,15.42
2022-08-22T04:38:13.854Z,15.44
2022-08-22T04:42:00.727Z,15.46
2022-08-22T04:45:35.712Z,15.42
2022-08-22T04:49:05.037Z,15.43
2022-08-22T04:52:24.497Z,15.42
2022-08-22T04:55:46.302Z,15.47
2022-08-22T04:59:17.385Z,15.46
2022-08-22T05:02:27.651Z,15.48
2022-08-22T05:05:42.869Z,15.46
2022-08-22T05:08:53.768Z,15.42
2022-08-22T05:12:09.786Z,15.39
2022-08-22T05:15:23.120Z,15.42
2022-08-22T05:18:50.580Z,15.36
2022-08-22T05:21:55.992Z,15.38
2022-08-22T05:25:08.673Z,15.42
2022-08-22T05:28:26.562Z,15.43
2022-08-22T05:31:43.720Z,15.50
2022-08-22T05:34:51.924Z,15.60
2022-08-22T05:37:56.884Z,15.65
2022-08-22T05:41:24.222Z,15.66
2022-08-22T05:44:38.220Z,15.69
2022-08-22T05:47:47.965Z,15.77
2022-08-22T05:51:05.957Z,15.80
2022-08-22T05:54:20.531Z,15.76
2022-08-22T05:57:41.812Z,15.83
2022-08-22T06:00:54.191Z,15.86
2022-08-22T06:04:45.708Z,15.89
2022-08-22T06:07:53.464Z,15.89
2022-08-22T06:11:07.504Z,15.98
2022-08-22T06:14:39.856Z,15.99
2022-08-22T06:18:00.798Z,15.99
2022-08-22T06:21:38.613Z,16.02
2022-08-22T06:24:44.673Z,16.09
2022-08-22T06:27:50.803Z,16.14
2022-08-22T06:30:58.016Z,16.19
2022-08-22T06:34:23.020Z,16.29
2022-08-22T06:37:32.379Z,16.43
2022-08-22T06:40:37.050Z,16.50
2022-08-22T06:43:44.037Z,16.55
2022-08-22T06:46:54.071Z,16.62
2022-08-22T06:50:25.332Z,16.68
2022-08-22T06:53:48.201Z,16.77
2022-08-22T06:56:55.490Z,16.86
2022-08-22T07:00:06.867Z,16.97
2022-08-22T07:03:21.898Z,17.04
2022-08-22T07:06:43.619Z,17.15
2022-08-22T07:09:55.317Z,17.20
2022-08-22T07:13:00.538Z,17.28
2022-08-22T07:16:08.791Z,17.35
2022-08-22T07:19:53.153Z,17.50
2022-08-22T07:23:09.944Z,17.59
2022-08-22T07:26:40.625Z,17.72
2022-08-22T07:30:11.242Z,17.69
2022-08-22T07:33:49.767Z,17.86
2022-08-22T07:37:08.395Z,17.91
2022-08-22T07:40:21.890Z,18.05
2022-08-22T07:43:35.727Z,18.13
2022-08-22T07:47:13.051Z,18.24
2022-08-22T07:50:25.884Z,18.35
2022-08-22T07:53:43.320Z,18.43
2022-08-22T07:57:04.802Z,18.54
2022-08-22T08:00:17.548Z,18.71
2022-08-22T08:03:25.869Z,18.79
2022-08-22T08:06:32.375Z,18.91
2022-08-22T08:09:50.053Z,18.95
2022-08-22T08:13:14.455Z,19.03
2022-08-22T08:16:25.646Z,19.07
2022-08-22T08:19:34.413Z,19.12
2022-08-22T08:22:43.231Z,19.11
2022-08-22T08:26:17.346Z,19.06
2022-08-22T08:29:22.091Z,19.05
2022-08-22T08:32:33.757Z,19.18
2022-08-22T08:36:01.890Z,19.21
2022-08-22T08:39:16.341Z,19.45
2022-08-22T08:43:14.248Z,19.67
2022-08-22T08:46:55.154Z,19.69
2022-08-22T08:50:21.583Z,19.68
2022-08-22T08:53:53.015Z,19.65
2022-08-22T08:57:32.177Z,19.56
2022-08-22T09:01:06.853Z,19.60
2022-08-22T09:04:25.686Z,19.60
2022-08-22T09:08:11.859Z,19.57
2022-08-22T09:11:50.604Z,19.79
2022-08-22T09:15:23.107Z,19.93
2022-08-22T09:19:10.538Z,19.94
2022-08-22T09:23:01.875Z,19.84
2022-08-22T09:26:47.390Z,19.92
2022-08-22T09:30:04.984Z,20.02
2022-08-22T09:33:19.728Z,20.16
2022-08-22T09:37:06.495Z,20.20
2022-08-22T09:40:35.209Z,20.32
2022-08-22T09:43:50.397Z,20.45
2022-08-22T09:47:24.597Z,20.58
2022-08-22T09:51:08.311Z,20.65
2022-08-22T09:54:48.631Z,20.67
2022-08-22T09:58:40.667Z,20.74
2022-08-22T10:01:57.737Z,20.74
2022-08-22T10:05:35.167Z,20.90
2022-08-22T10:09:16.779Z,20.88
2022-08-22T10:13:20.204Z,20.88
2022-08-22T10:16:59.645Z,21.03
2022-08-22T10:20:24.921Z,21.19
2022-08-22T10:23:53.801Z,21.26
2022-08-22T10:27:10.140Z,21.35
2022-08-22T10:30:42.891Z,21.44
2022-08-22T10:34:11.760Z,21.53
2022-08-22T10:37:30.651Z,21.75
2022-08-22T10:41:22.519Z,21.89
2022-08-22T10:45:23.951Z,22.35
2022-08-22T10:49:19.469Z,22.76
2022-08-22T10:52:31.345Z,23.04
2022-08-22T10:55:43.062Z,23.11
2022-08-22T10:59:17.908Z,23.02
2022-08-22T11:02:47.129Z,22.75
2022-08-22T11:06:12.777Z,22.51
2022-08-22T11:09:41.874Z,22.26
2022-08-22T11:13:11.998Z,22.05
2022-08-22T11:16:55.106Z,21.93
2022-08-22T11:20:30.269Z,21.82
2022-08-22T11:24:35.256Z,21.81
2022-08-22T11:28:05.426Z,21.84
2022-08-22T11:32:08.136Z,21.81
2022-08-22T11:35:26.085Z,21.76
2022-08-22T11:38:59.561Z,21.74
2022-08-22T11:42:33.286Z,21.74
2022-08-22T11:45:47.240Z,21.84
2022-08-22T11:49:08.791Z,21.84
2022-08-22T11:52:21.081Z,21.92
2022-08-22T11:56:28.119Z,21.86
2022-08-22T11:59:57.065Z,21.79
2022-08-22T12:03:18.007Z,21.83
2022-08-22T12:06:56.030Z,21.75
2022-08-22T12:10:35.919Z,21.79
2022-08-22T12:14:08.117Z,21.80
2022-08-22T12:17:55.042Z,22.25
2022-08-22T12:21:42.534Z,22.97
2022-08-22T12:25:29.886Z,23.45
2022-08-22T12:29:33.416Z,23.60
2022-08-22T12:33:22.071Z,23.14
2022-08-22T12:37:04.519Z,23.45
2022-08-22T12:40:20.086Z,23.41
2022-08-22T12:44:31.022Z,23.01
2022-08-22T12:47:48.929Z,22.74
2022-08-22T12:51:56.139Z,22.58
2022-08-22T12:55:17.032Z,22.59
2022-08-22T12:58:51.152Z,22.58
2022-08-22T13:02:11.998Z,22.71
2022-08-22T13:05:30.319Z,23.01
2022-08-22T13:08:44.399Z,23.13
2022-08-22T13:11:55.476Z,23.24
2022-08-22T13:15:30.395Z,23.17
2022-08-22T13:19:00.547Z,23.32
2022-08-22T13:22:23.769Z,23.37
2022-08-22T13:25:50.800Z,23.42
2022-08-22T13:29:26.780Z,23.09
2022-08-22T13:32:56.700Z,23.09
2022-08-22T13:36:12.434Z,23.13
2022-08-22T13:39:19.695Z,22.95
2022-08-22T13:42:30.693Z,22.88
2022-08-22T13:45:38.137Z,22.69
2022-08-22T13:48:50.307Z,22.65
2022-08-22T13:52:29.802Z,22.65
2022-08-22T13:55:50.621Z,22.92
2022-08-22T13:59:03.368Z,23.00
2022-08-22T14:02:44.995Z,23.01
2022-08-22T14:05:54.970Z,22.91
2022-08-22T14:09:30.731Z,22.83
2022-08-22T14:13:13.246Z,23.00
2022-08-22T14:16:47.931Z,22.94
2022-08-22T14:20:31.963Z,22.84
2022-08-22T14:23:37.509Z,22.71
2022-08-22T14:26:57.718Z,22.53
2022-08-22T14:30:14.751Z,22.36
2022-08-22T14:33:28.189Z,22.38
2022-08-22T14:36:45.921Z,22.29
2022-08-22T14:39:58.364Z,22.36
2022-08-22T14:43:40.808Z,22.23
2022-08-22T14:46:55.632Z,22.34
2022-08-22T14:50:11.218Z,22.30
2022-08-22T14:53:19.122Z,22.22
2022-08-22T14:56:29.864Z,22.34
2022-08-22T14:59:53.087Z,22.22
2022-08-22T15:03:32.646Z,22.21
2022-08-22T15:06:52.406Z,22.29
2022-08-22T15:10:11.886Z,22.27
2022-08-22T15:13:23.023Z,22.23
2022-08-22T15:16:35.799Z,22.08
2022-08-22T15:19:48.104Z,22.01
2022-08-22T15:23:09.758Z,22.00
2022-08-22T15:26:52.864Z,21.91
2022-08-22T15:30:18.871Z,21.93
2022-08-22T15:33:33.640Z,22.03
2022-08-22T15:37:09.849Z,22.04
2022-08-22T15:40:45.715Z,22.04
2022-08-22T15:44:33.581Z,22.05
2022-08-22T15:47:47.010Z,22.20
2022-08-22T15:51:10.406Z,22.03
2022-08-22T15:54:28.183Z,22.18
2022-08-22T15:57:47.449Z,22.23
2022-08-22T16:01:19.698Z,22.17
2022-08-22T16:04:50.986Z,22.35
2022-08-22T16:07:58.360Z,22.34
2022-08-22T16:11:03.118Z,22.35
2022-08-22T16:14:24.148Z,22.36
2022-08-22T16:17:28.695Z,22.32
2022-08-22T16:20:32.910Z,22.26
2022-08-22T16:23:56.675Z,22.15
2022-08-22T16:27:22.394Z,22.15
2022-08-22T16:30:34.723Z,22.16
2022-08-22T16:33:42.784Z,22.06
2022-08-22T16:37:09.025Z,21.96
2022-08-22T16:40:22.900Z,21.92
2022-08-22T16:43:29.035Z,21.84
2022-08-22T16:46:41.687Z,21.82
2022-08-22T16:49:56.390Z,21.76
2022-08-22T16:53:33.496Z,21.79
2022-08-22T16:56:53.988Z,21.73
2022-08-22T17:00:22.979Z,21.72
2022-08-22T17:04:11.155Z,21.69
2022-08-22T17:07:47.282Z,21.65
2022-08-22T17:11:35.685Z,21.52
2022-08-22T17:15:33.561Z,21.51
2022-08-22T17:18:49.880Z,21.50
2022-08-22T17:22:07.080Z,21.48
2022-08-22T17:25:46.986Z,21.36
2022-08-22T17:29:03.165Z,21.39
2022-08-22T17:32:15.315Z,21.34
2022-08-22T17:35:41.434Z,21.28
2022-08-22T17:39:12.833Z,21.24
2022-08-22T17:42:44.113Z,21.18
2022-08-22T17:45:55.345Z,21.23
2022-08-22T17:49:17.390Z,21.18
2022-08-22T17:52:38.155Z,21.10
2022-08-22T17:56:02.680Z,21.03
2022-08-22T17:59:25.524Z,20.96
2022-08-22T18:03:06.742Z,20.93
2022-08-22T18:06:26.591Z,20.88
2022-08-22T18:10:04.696Z,20.78
2022-08-22T18:13:34.026Z,20.70
2022-08-22T18:16:50.899Z,20.69
2022-08-22T18:20:16.587Z,20.62
2022-08-22T18:23:39.283Z,20.54
2022-08-22T18:26:52.372Z,20.52
2022-08-22T18:30:15.178Z,20.49
2022-08-22T18:33:39.981Z,20.38
2022-08-22T18:37:09.493Z,20.29
2022-08-22T18:40:36.726Z,20.25
2022-08-22T18:43:52.572Z,20.22
2022-08-22T18:47:15.473Z,20.14
2022-08-22T18:50:34.975Z,20.12
2022-08-22T18:53:48.319Z,20.10
2022-08-22T18:57:03.000Z,20.05
2022-08-22T19:00:19.168Z,20.00
2022-08-22T19:04:00.736Z,19.96
2022-08-22T19:07:14.353Z,19.91
2022-08-22T19:10:53.008Z,19.87
2022-08-22T19:14:06.814Z,19.86
2022-08-22T19:17:16.195Z,19.81
2022-08-22T19:21:47.256Z,19.75
2022-08-22T19:25:15.895Z,19.66
2022-08-22T19:28:26.400Z,19.63
2022-08-22T19:31:37.271Z,19.64
2022-08-22T19:34:46.800Z,19.60
2022-08-22T19:37:59.929Z,19.55
2022-08-22T19:41:04.687Z,19.52
2022-08-22T19:44:20.364Z,19.49
2022-08-22T19:47:35.038Z,19.45
2022-08-22T19:50:39.317Z,19.46
2022-08-22T19:54:16.882Z,19.40
2022-08-22T19:57:58.663Z,19.37
2022-08-22T20:01:20.961Z,19.36
2022-08-22T20:04:46.062Z,19.33
2022-08-22T20:08:03.301Z,19.28
2022-08-22T20:12:14.636Z,19.18
2022-08-22T20:15:24.080Z,19.13
2022-08-22T20:19:01.943Z,19.09
2022-08-22T20:22:39.271Z,19.07
2022-08-22T20:25:50.286Z,19.05
2022-08-22T20:28:55.830Z,19.03
2022-08-22T20:32:02.222Z,19.00
2022-08-22T20:35:11.348Z,18.96
2022-08-22T20:38:35.749Z,18.96
2022-08-22T20:41:47.623Z,18.93
2022-08-22T20:45:12.399Z,18.90
2022-08-22T20:48:19.296Z,18.87
2022-08-22T20:51:28.009Z,18.82
2022-08-22T20:54:39.909Z,18.83
2022-08-22T20:57:58.159Z,18.84
2022-08-22T21:01:18.867Z,18.81
2022-08-22T21:04:27.876Z,18.81
2022-08-22T21:07:45.656Z,18.77
2022-08-22T21:11:18.827Z,18.78
2022-08-22T21:14:26.945Z,18.69
2022-08-22T21:17:39.125Z,18.72
2022-08-22T21:20:43.785Z,18.70
2022-08-22T21:24:02.790Z,18.70
2022-08-22T21:27:07.727Z,18.66
2022-08-22T21:30:28.156Z,18.67
2022-08-22T21:33:32.844Z,18.65
2022-08-22T21:36:38.343Z,18.67
2022-08-22T21:39:51.213Z,18.67
2022-08-22T21:43:27.075Z,18.65
2022-08-22T21:46:31.408Z,18.64
2022-08-22T21:49:36.359Z,18.67
2022-08-22T21:53:04.699Z,18.69
2022-08-22T21:56:27.533Z,18.71
2022-08-22T21:59:51.733Z,18.71
2022-08-22T22:03:03.680Z,18.75
2022-08-22T22:06:12.099Z,18.75
2022-08-22T22:09:16.500Z,18.79
2022-08-22T22:12:21.481Z,18.77
2022-08-22T22:15:31.887Z,18.75
2022-08-22T22:18:38.567Z,18.72
2022-08-22T22:21:43.482Z,18.69
2022-08-22T22:24:48.079Z,18.74
2022-08-22T22:27:52.568Z,18.72
2022-08-22T22:30:58.055Z,18.69
2022-08-22T22:34:02.750Z,18.71
2022-08-22T22:37:11.984Z,18.71
2022-08-22T22:40:17.658Z,18.67
2022-08-22T22:43:22.306Z,18.67
2022-08-22T22:46:27.212Z,18.64
2022-08-22T22:49:32.970Z,18.67
2022-08-22T22:52:38.474Z,18.67
2022-08-22T22:55:45.216Z,18.66
2022-08-22T22:59:00.675Z,18.65
2022-08-22T23:02:22.001Z,18.64
2022-08-22T23:05:26.207Z,18.62
2022-08-22T23:08:30.589Z,18.65
2022-08-22T23:11:35.712Z,18.66
2022-08-22T23:14:40.112Z,18.63
2022-08-22T23:17:44.527Z,18.63
2022-08-22T23:20:48.695Z,18.60
2022-08-22T23:23:57.721Z,18.63
2022-08-22T23:27:02.900Z,18.59
2022-08-22T23:30:09.175Z,18.65
2022-08-22T23:33:14.358Z,18.63
2022-08-22T23:36:22.897Z,18.66
2022-08-22T23:39:29.839Z,18.66
2022-08-22T23:42:34.510Z,18.64
2022-08-22T23:45:39.261Z,18.62
2022-08-22T23:48:44.166Z,18.67
2022-08-22T23:51:49.776Z,18.68
2022-08-22T23:54:55.749Z,18.69
2022-08-22T23:58:00.733Z,18.68
